createdAt,value
2023-03-06T00:01:07.627Z,2.08
2023-03-06T00:03:34.231Z,2.02
2023-03-06T00:06:01.734Z,2.03
2023-03-06T00:08:29.021Z,1.97
2023-03-06T00:10:56.294Z,1.89
2023-03-06T00:13:22.866Z,1.89
2023-03-06T00:15:49.392Z,1.98
2023-03-06T00:18:16.043Z,1.90
2023-03-06T00:20:43.880Z,1.89
2023-03-06T00:23:11.188Z,1.90
2023-03-06T00:25:38.748Z,1.90
2023-03-06T00:28:06.224Z,1.88
2023-03-06T00:30:33.036Z,1.86
2023-03-06T00:32:59.440Z,1.94
2023-03-06T00:35:25.785Z,1.90
2023-03-06T00:37:52.163Z,1.90
2023-03-06T00:40:20.251Z,1.88
2023-03-06T00:42:47.602Z,1.92
2023-03-06T00:45:14.252Z,1.93
2023-03-06T00:47:41.116Z,1.89
2023-03-06T00:50:08.562Z,1.89
2023-03-06T00:52:35.261Z,1.92
2023-03-06T00:55:01.698Z,1.84
2023-03-06T00:57:28.125Z,1.82
2023-03-06T00:59:54.451Z,1.90
2023-03-06T01:02:21.326Z,1.88
2023-03-06T01:04:47.699Z,1.85
2023-03-06T01:07:14.148Z,1.81
2023-03-06T01:09:40.687Z,1.86
2023-03-06T01:12:07.458Z,1.88
2023-03-06T01:14:33.945Z,1.80
2023-03-06T01:17:00.301Z,1.79
2023-03-06T01:19:26.655Z,1.79
2023-03-06T01:21:52.991Z,1.74
2023-03-06T01:24:19.382Z,1.75
2023-03-06T01:26:45.736Z,1.76
2023-03-06T01:29:12.084Z,1.76
2023-03-06T01:31:38.443Z,1.78
2023-03-06T01:34:04.925Z,1.74
2023-03-06T01:36:31.408Z,1.67
2023-03-06T01:38:57.869Z,1.70
2023-03-06T01:41:24.374Z,1.64
2023-03-06T01:43:51.200Z,1.67
2023-03-06T01:46:33.268Z,1.62
2023-03-06T01:49:24.095Z,1.69
2023-03-06T01:51:57.557Z,1.65
2023-03-06T01:54:28.406Z,1.73
2023-03-06T01:57:02.340Z,1.69
2023-03-06T01:59:29.181Z,1.71
2023-03-06T02:01:57.175Z,1.62
2023-03-06T02:04:24.031Z,1.61
2023-03-06T02:06:50.750Z,1.63
2023-03-06T02:09:17.082Z,1.60
2023-03-06T02:11:45.200Z,1.64
2023-03-06T02:14:15.086Z,1.58
2023-03-06T02:16:41.709Z,1.59
2023-03-06T02:19:21.909Z,1.58
2023-03-06T02:21:48.258Z,1.63
2023-03-06T02:24:42.163Z,1.66
2023-03-06T02:27:10.001Z,1.57
2023-03-06T02:29:36.673Z,1.58
2023-03-06T02:32:03.700Z,1.65
2023-03-06T02:34:30.002Z,1.62
2023-03-06T02:37:06.845Z,1.59
2023-03-06T02:39:35.921Z,1.53
2023-03-06T02:42:02.276Z,1.58
2023-03-06T02:44:30.048Z,1.51
2023-03-06T02:46:56.408Z,1.62
2023-03-06T02:49:24.377Z,1.57
2023-03-06T02:51:51.809Z,1.51
2023-03-06T02:54:18.380Z,1.52
2023-03-06T02:56:45.398Z,1.50
2023-03-06T02:59:12.581Z,1.39
2023-03-06T03:01:39.208Z,1.34
2023-03-06T03:04:05.553Z,1.39
2023-03-06T03:06:31.917Z,1.37
2023-03-06T03:08:58.263Z,1.32
2023-03-06T03:11:24.610Z,1.30
2023-03-06T03:13:50.970Z,1.26
2023-03-06T03:16:17.826Z,1.31
2023-03-06T03:18:44.964Z,1.30
2023-03-06T03:21:13.258Z,1.18
2023-03-06T03:23:40.024Z,1.13
2023-03-06T03:26:08.530Z,1.21
2023-03-06T03:28:34.926Z,1.15
2023-03-06T03:31:06.372Z,1.18
2023-03-06T03:33:33.672Z,1.09
2023-03-06T03:36:01.402Z,1.11
2023-03-06T03:38:28.473Z,1.11
2023-03-06T03:40:55.300Z,1.09
2023-03-06T03:43:21.687Z,1.02
2023-03-06T03:45:48.362Z,1.03
2023-03-06T03:48:14.843Z,1.06
2023-03-06T03:50:41.193Z,1.03
2023-03-06T03:53:07.552Z,0.93
2023-03-06T03:55:33.920Z,0.91
2023-03-06T03:58:00.293Z,0.98
2023-03-06T04:00:26.653Z,0.92
2023-03-06T04:02:53.006Z,0.96
2023-03-06T04:05:19.470Z,0.86
2023-03-06T04:07:45.837Z,0.87
2023-03-06T04:10:13.389Z,0.83
2023-03-06T04:12:39.756Z,0.82
2023-03-06T04:15:06.893Z,0.96
2023-03-06T04:17:34.938Z,0.89
2023-03-06T04:20:04.457Z,0.93
2023-03-06T04:22:31.031Z,0.90
2023-03-06T04:24:57.465Z,0.96
2023-03-06T04:27:23.867Z,0.95
2023-03-06T04:29:50.258Z,0.91
2023-03-06T04:32:16.643Z,1.03
2023-03-06T04:34:43.000Z,0.95
2023-03-06T04:37:18.762Z,0.86
2023-03-06T04:39:45.140Z,0.91
2023-03-06T04:42:11.552Z,0.91
2023-03-06T04:44:37.940Z,0.94
2023-03-06T04:47:04.524Z,0.95
2023-03-06T04:49:31.189Z,1.01
2023-03-06T04:51:57.528Z,0.91
2023-03-06T04:54:24.096Z,0.87
2023-03-06T04:56:50.465Z,0.89
2023-03-06T04:59:16.994Z,0.83
2023-03-06T05:01:43.427Z,0.80
2023-03-06T05:04:09.880Z,0.82
2023-03-06T05:06:36.198Z,0.81
2023-03-06T05:09:02.629Z,0.76
2023-03-06T05:11:29.058Z,0.84
2023-03-06T05:13:55.416Z,0.82
2023-03-06T05:16:21.776Z,0.77
2023-03-06T05:18:50.521Z,0.76
2023-03-06T05:21:17.062Z,0.74
2023-03-06T05:23:43.390Z,0.67
2023-03-06T05:26:12.438Z,0.69
2023-03-06T05:28:38.972Z,0.69
2023-03-06T05:31:06.269Z,0.72
2023-03-06T05:33:33.896Z,0.71
2023-03-06T05:36:00.931Z,0.62
2023-03-06T05:38:27.768Z,0.60
2023-03-06T05:40:54.136Z,0.65
2023-03-06T05:43:20.530Z,0.63
2023-03-06T05:45:46.953Z,0.62
2023-03-06T05:48:13.759Z,0.59
2023-03-06T05:50:40.243Z,0.54
2023-03-06T05:53:07.680Z,0.52
2023-03-06T05:55:35.076Z,0.48
2023-03-06T05:58:01.547Z,0.49
2023-03-06T06:00:27.922Z,0.57
2023-03-06T06:02:54.347Z,0.61
2023-03-06T06:05:20.825Z,0.65
2023-03-06T06:07:47.241Z,0.62
2023-03-06T06:10:13.642Z,0.60
2023-03-06T06:12:40.172Z,0.62
2023-03-06T06:15:07.099Z,0.72
2023-03-06T06:17:33.448Z,0.74
2023-03-06T06:19:59.860Z,0.78
2023-03-06T06:22:26.308Z,0.76
2023-03-06T06:24:52.656Z,0.74
2023-03-06T06:27:19.005Z,0.76
2023-03-06T06:29:45.372Z,0.70
2023-03-06T06:32:12.224Z,0.76
2023-03-06T06:34:38.677Z,0.80
2023-03-06T06:37:05.335Z,0.84
2023-03-06T06:39:31.695Z,0.94
2023-03-06T06:42:20.032Z,0.93
2023-03-06T06:44:44.411Z,0.97
2023-03-06T06:47:26.378Z,0.95
2023-03-06T06:49:54.557Z,0.91
2023-03-06T06:52:21.670Z,0.99
2023-03-06T06:54:48.057Z,1.02
2023-03-06T06:57:14.876Z,1.00
2023-03-06T06:59:41.319Z,1.02
2023-03-06T07:02:07.799Z,1.05
2023-03-06T07:04:34.167Z,1.11
2023-03-06T07:07:01.122Z,1.12
2023-03-06T07:09:27.554Z,1.23
2023-03-06T07:11:53.999Z,1.20
2023-03-06T07:14:20.334Z,1.30
2023-03-06T07:16:46.677Z,1.25
2023-03-06T07:19:13.068Z,1.31
2023-03-06T07:21:39.438Z,1.38
2023-03-06T07:24:06.157Z,1.40
2023-03-06T07:26:34.587Z,1.39
2023-03-06T07:29:01.949Z,1.38
2023-03-06T07:31:28.570Z,1.50
2023-03-06T07:33:55.443Z,1.50
2023-03-06T07:36:23.635Z,1.53
2023-03-06T07:38:50.070Z,1.52
2023-03-06T07:41:17.521Z,1.61
2023-03-06T07:43:44.996Z,1.70
2023-03-06T07:46:13.038Z,1.74
2023-03-06T07:48:40.192Z,1.72
2023-03-06T07:51:10.269Z,1.76
2023-03-06T07:53:36.705Z,1.95
2023-03-06T07:56:08.831Z,2.04
2023-03-06T07:58:36.444Z,2.07
2023-03-06T08:01:04.888Z,2.08
2023-03-06T08:03:31.453Z,2.15
2023-03-06T08:06:15.266Z,2.21
2023-03-06T08:08:43.468Z,2.14
2023-03-06T08:11:11.306Z,2.14
2023-03-06T08:13:39.252Z,2.13
2023-03-06T08:16:06.304Z,2.28
2023-03-06T08:18:33.374Z,2.37
2023-03-06T08:21:09.036Z,2.30
2023-03-06T08:23:36.088Z,2.51
2023-03-06T08:26:05.522Z,2.47
2023-03-06T08:28:32.319Z,2.44
2023-03-06T08:31:07.098Z,2.51
2023-03-06T08:33:33.550Z,2.50
2023-03-06T08:36:01.397Z,2.50
2023-03-06T08:38:28.686Z,2.57
2023-03-06T08:40:55.095Z,2.51
2023-03-06T08:43:21.447Z,2.53
2023-03-06T08:45:56.576Z,2.57
2023-03-06T08:48:23.026Z,2.66
2023-03-06T08:50:49.865Z,2.62
2023-03-06T08:53:18.766Z,2.68
2023-03-06T08:55:45.635Z,2.73
2023-03-06T08:58:12.003Z,2.74
2023-03-06T09:00:38.485Z,2.73
2023-03-06T09:03:06.704Z,2.82
2023-03-06T09:05:33.557Z,2.86
2023-03-06T09:08:00.010Z,2.86
2023-03-06T09:10:27.341Z,2.76
2023-03-06T09:12:55.058Z,2.82
2023-03-06T09:15:22.871Z,2.88
2023-03-06T09:17:49.475Z,3.09
2023-03-06T09:20:16.745Z,3.05
2023-03-06T09:22:43.589Z,3.08
2023-03-06T09:25:13.082Z,3.01
2023-03-06T09:27:40.189Z,3.10
2023-03-06T09:30:07.388Z,3.37
2023-03-06T09:32:33.880Z,3.32
2023-03-06T09:35:01.123Z,3.25
2023-03-06T09:37:27.506Z,3.27
2023-03-06T09:39:53.872Z,3.34
2023-03-06T09:42:23.409Z,3.36
2023-03-06T09:44:59.138Z,3.47
2023-03-06T09:47:40.869Z,3.43
2023-03-06T09:50:19.343Z,3.50
2023-03-06T09:53:06.140Z,3.55
2023-03-06T09:55:35.615Z,3.56
2023-03-06T09:58:12.719Z,3.57
2023-03-06T10:00:55.337Z,3.70
2023-03-06T10:03:29.423Z,3.84
2023-03-06T10:06:04.741Z,3.86
2023-03-06T10:08:57.788Z,3.83
2023-03-06T10:11:37.772Z,3.84
2023-03-06T10:14:24.325Z,3.70
2023-03-06T10:16:50.894Z,3.78
2023-03-06T10:19:20.637Z,3.75
2023-03-06T10:22:04.495Z,3.82
2023-03-06T10:24:35.944Z,3.73
2023-03-06T10:27:23.918Z,3.54
2023-03-06T10:30:03.235Z,3.59
2023-03-06T10:32:49.868Z,3.70
2023-03-06T10:35:23.840Z,3.63
2023-03-06T10:37:50.340Z,3.75
2023-03-06T10:40:22.643Z,3.84
2023-03-06T10:42:56.075Z,3.91
2023-03-06T10:45:29.938Z,3.63
2023-03-06T10:48:11.964Z,3.61
2023-03-06T10:50:38.447Z,3.71
2023-03-06T10:53:07.457Z,3.80
2023-03-06T10:55:35.550Z,3.71
2023-03-06T10:58:18.414Z,3.68
2023-03-06T11:00:45.448Z,3.65
2023-03-06T11:03:21.967Z,3.59
2023-03-06T11:06:03.971Z,3.59
2023-03-06T11:08:31.051Z,3.65
2023-03-06T11:11:06.824Z,3.67
2023-03-06T11:13:36.512Z,3.58
2023-03-06T11:16:06.455Z,3.69
2023-03-06T11:18:59.993Z,3.69
2023-03-06T11:21:32.622Z,3.70
2023-03-06T11:24:05.855Z,3.53
2023-03-06T11:26:52.497Z,3.45
2023-03-06T11:29:38.935Z,3.36
2023-03-06T11:32:12.358Z,3.29
2023-03-06T11:35:02.530Z,3.19
2023-03-06T11:37:42.850Z,3.25
2023-03-06T11:40:09.278Z,3.27
2023-03-06T11:42:42.585Z,3.37
2023-03-06T11:45:37.226Z,3.34
2023-03-06T11:48:15.851Z,3.32
2023-03-06T11:50:49.699Z,3.31
2023-03-06T11:53:21.222Z,3.33
2023-03-06T11:56:23.825Z,3.27
2023-03-06T11:59:18.623Z,3.39
2023-03-06T12:02:05.244Z,3.51
2023-03-06T12:04:55.033Z,3.67
2023-03-06T12:07:30.466Z,3.74
2023-03-06T12:10:23.264Z,3.72
2023-03-06T12:13:03.982Z,3.75
2023-03-06T12:15:45.335Z,4.00
2023-03-06T12:18:38.433Z,4.00
2023-03-06T12:21:41.850Z,4.08
2023-03-06T12:24:10.991Z,4.15
2023-03-06T12:26:54.531Z,4.12
2023-03-06T12:29:36.702Z,3.95
2023-03-06T12:32:14.888Z,3.92
2023-03-06T12:35:01.471Z,3.88
2023-03-06T12:37:52.300Z,4.02
2023-03-06T12:40:32.485Z,3.95
2023-03-06T12:43:18.580Z,3.98
2023-03-06T12:45:46.233Z,3.92
2023-03-06T12:48:25.433Z,3.86
2023-03-06T12:50:52.539Z,3.80
2023-03-06T12:53:28.391Z,3.83
2023-03-06T12:55:57.151Z,3.85
2023-03-06T12:58:29.836Z,3.81
2023-03-06T13:01:14.751Z,3.75
2023-03-06T13:04:17.380Z,3.70
2023-03-06T13:07:02.069Z,3.52
2023-03-06T13:09:37.425Z,3.22
2023-03-06T13:12:12.854Z,2.92
2023-03-06T13:14:42.342Z,2.73
2023-03-06T13:17:24.014Z,2.64
2023-03-06T13:20:15.463Z,2.63
2023-03-06T13:22:43.926Z,2.52
2023-03-06T13:25:19.612Z,2.46
2023-03-06T13:28:01.025Z,2.48
2023-03-06T13:30:36.664Z,2.59
2023-03-06T13:33:37.064Z,2.63
2023-03-06T13:36:24.694Z,2.74
2023-03-06T13:38:51.632Z,2.74
2023-03-06T13:41:24.828Z,2.62
2023-03-06T13:43:59.440Z,2.68
2023-03-06T13:46:34.769Z,2.72
2023-03-06T13:49:13.311Z,2.80
2023-03-06T13:52:06.139Z,2.96
2023-03-06T13:54:58.472Z,3.08
2023-03-06T13:57:27.703Z,3.23
2023-03-06T14:00:31.227Z,3.33
2023-03-06T14:03:26.346Z,3.48
2023-03-06T14:05:53.050Z,3.52
2023-03-06T14:08:22.720Z,3.49
2023-03-06T14:11:00.244Z,3.73
2023-03-06T14:13:45.264Z,3.67
2023-03-06T14:16:22.262Z,3.68
2023-03-06T14:18:51.334Z,3.76
2023-03-06T14:21:39.494Z,3.81
2023-03-06T14:24:06.062Z,3.81
2023-03-06T14:26:39.376Z,3.73
2023-03-06T14:29:25.490Z,3.72
2023-03-06T14:31:54.679Z,3.65
2023-03-06T14:34:23.894Z,3.68
2023-03-06T14:36:53.006Z,3.81
2023-03-06T14:39:29.172Z,3.93
2023-03-06T14:42:28.489Z,3.86
2023-03-06T14:45:18.570Z,3.77
2023-03-06T14:47:52.610Z,3.91
2023-03-06T14:50:30.807Z,3.91
2023-03-06T14:53:02.906Z,3.93
2023-03-06T14:55:32.160Z,3.88
2023-03-06T14:58:14.874Z,3.86
2023-03-06T15:00:44.870Z,3.90
2023-03-06T15:03:18.198Z,4.01
2023-03-06T15:05:46.969Z,3.96
2023-03-06T15:08:19.205Z,3.96
2023-03-06T15:11:03.907Z,3.89
2023-03-06T15:13:32.141Z,3.92
2023-03-06T15:16:01.157Z,3.95
2023-03-06T15:18:39.115Z,3.88
2023-03-06T15:21:08.339Z,3.91
2023-03-06T15:23:40.963Z,3.91
2023-03-06T15:26:33.157Z,3.94
2023-03-06T15:29:10.066Z,3.90
2023-03-06T15:31:39.260Z,3.83
2023-03-06T15:34:11.445Z,3.74
2023-03-06T15:36:43.369Z,3.74
2023-03-06T15:39:40.052Z,3.69
2023-03-06T15:42:19.656Z,3.64
2023-03-06T15:44:51.632Z,3.70
2023-03-06T15:47:18.043Z,3.76
2023-03-06T15:49:44.607Z,3.67
2023-03-06T15:52:11.003Z,3.64
2023-03-06T15:54:37.610Z,3.67
2023-03-06T15:57:08.068Z,3.75
2023-03-06T15:59:42.896Z,3.54
2023-03-06T16:02:16.423Z,3.38
2023-03-06T16:04:43.109Z,2.93
2023-03-06T16:07:09.564Z,2.31
2023-03-06T16:09:36.229Z,2.01
2023-03-06T16:12:03.184Z,1.91
2023-03-06T16:14:29.641Z,1.73
2023-03-06T16:16:56.941Z,1.67
2023-03-06T16:19:26.859Z,1.61
2023-03-06T16:21:55.264Z,1.61
2023-03-06T16:24:21.902Z,1.52
2023-03-06T16:26:50.968Z,1.41
2023-03-06T16:29:22.770Z,1.50
2023-03-06T16:31:49.255Z,1.48
2023-03-06T16:34:16.042Z,1.52
2023-03-06T16:36:42.540Z,1.50
2023-03-06T16:39:14.643Z,1.48
2023-03-06T16:41:41.317Z,1.48
2023-03-06T16:44:10.034Z,1.50
2023-03-06T16:46:40.694Z,1.52
2023-03-06T16:49:07.239Z,1.49
2023-03-06T16:51:33.650Z,1.50
2023-03-06T16:54:00.153Z,1.43
2023-03-06T16:56:26.628Z,1.55
2023-03-06T16:58:53.013Z,1.55
2023-03-06T17:01:20.036Z,1.56
2023-03-06T17:03:47.153Z,1.51
2023-03-06T17:06:19.112Z,1.53
2023-03-06T17:08:46.209Z,1.54
2023-03-06T17:11:13.478Z,1.57
2023-03-06T17:13:40.668Z,1.53
2023-03-06T17:16:09.641Z,1.52
2023-03-06T17:18:36.094Z,1.57
2023-03-06T17:21:02.483Z,1.55
2023-03-06T17:23:29.610Z,1.62
2023-03-06T17:26:18.697Z,1.68
2023-03-06T17:28:45.630Z,1.69
2023-03-06T17:31:23.120Z,1.61
2023-03-06T17:33:51.396Z,1.59
2023-03-06T17:36:19.196Z,1.58
2023-03-06T17:38:45.772Z,1.64
2023-03-06T17:41:13.035Z,1.74
2023-03-06T17:43:40.269Z,1.71
2023-03-06T17:46:12.150Z,1.70
2023-03-06T17:48:39.795Z,1.67
2023-03-06T17:51:06.650Z,1.69
2023-03-06T17:53:33.178Z,1.74
2023-03-06T17:55:59.629Z,1.66
2023-03-06T17:58:26.884Z,1.86
2023-03-06T18:00:53.766Z,1.76
2023-03-06T18:03:20.304Z,1.76
2023-03-06T18:05:46.725Z,1.78
2023-03-06T18:08:13.553Z,1.75
2023-03-06T18:10:41.324Z,1.72
2023-03-06T18:13:08.973Z,1.74
2023-03-06T18:15:39.434Z,1.77
2023-03-06T18:18:06.275Z,1.83
2023-03-06T18:20:32.931Z,1.85
2023-03-06T18:23:03.402Z,1.79
2023-03-06T18:25:31.727Z,1.79
2023-03-06T18:27:58.093Z,1.80
2023-03-06T18:30:24.592Z,1.80
2023-03-06T18:32:50.982Z,1.75
2023-03-06T18:35:17.478Z,1.79
2023-03-06T18:37:43.958Z,1.87
2023-03-06T18:40:11.073Z,1.79
2023-03-06T18:42:37.433Z,1.79
2023-03-06T18:45:04.259Z,1.86
2023-03-06T18:47:30.625Z,1.79
2023-03-06T18:49:57.026Z,1.80
2023-03-06T18:52:23.393Z,1.72
2023-03-06T18:54:50.459Z,1.72
2023-03-06T18:57:16.792Z,1.77
2023-03-06T18:59:43.286Z,1.76
2023-03-06T19:02:10.807Z,1.83
2023-03-06T19:04:37.805Z,1.81
2023-03-06T19:07:05.539Z,1.90
2023-03-06T19:09:31.910Z,1.78
2023-03-06T19:11:59.233Z,1.80
2023-03-06T19:14:27.881Z,1.73
2023-03-06T19:16:54.814Z,1.69
2023-03-06T19:19:26.023Z,1.86
2023-03-06T19:21:53.425Z,1.74
2023-03-06T19:24:19.800Z,1.74
2023-03-06T19:26:46.238Z,1.72
2023-03-06T19:29:12.596Z,1.77
2023-03-06T19:31:38.982Z,1.67
2023-03-06T19:34:05.350Z,1.73
2023-03-06T19:36:33.996Z,1.69
2023-03-06T19:39:03.525Z,1.69
2023-03-06T19:41:29.910Z,1.68
2023-03-06T19:43:58.835Z,1.73
2023-03-06T19:46:26.290Z,1.71
2023-03-06T19:48:58.115Z,1.78
2023-03-06T19:51:25.358Z,1.73
2023-03-06T19:53:52.368Z,1.78
2023-03-06T19:56:25.972Z,1.71
2023-03-06T19:58:52.674Z,1.66
2023-03-06T20:01:21.295Z,1.63
2023-03-06T20:03:49.304Z,1.68
2023-03-06T20:06:18.450Z,1.64
2023-03-06T20:08:46.227Z,1.65
2023-03-06T20:11:17.958Z,1.66
2023-03-06T20:13:47.395Z,1.65
2023-03-06T20:16:14.487Z,1.67
2023-03-06T20:18:40.893Z,1.66
2023-03-06T20:21:07.348Z,1.63
2023-03-06T20:23:33.922Z,1.67
2023-03-06T20:26:11.917Z,1.59
2023-03-06T20:28:39.513Z,1.60
2023-03-06T20:31:13.823Z,1.52
2023-03-06T20:33:40.278Z,1.51
2023-03-06T20:36:21.274Z,1.52
2023-03-06T20:38:47.950Z,1.42
2023-03-06T20:41:19.129Z,1.42
2023-03-06T20:43:45.534Z,1.41
2023-03-06T20:46:12.684Z,1.36
2023-03-06T20:48:40.016Z,1.31
2023-03-06T20:51:13.588Z,1.34
2023-03-06T20:53:40.013Z,1.31
2023-03-06T20:56:06.675Z,1.29
2023-03-06T20:58:33.038Z,1.29
2023-03-06T21:01:02.029Z,1.38
2023-03-06T21:03:29.273Z,1.34
2023-03-06T21:05:55.733Z,1.42
2023-03-06T21:08:22.230Z,1.42
2023-03-06T21:10:48.821Z,1.50
2023-03-06T21:13:15.208Z,1.47
2023-03-06T21:15:43.386Z,1.43
2023-03-06T21:18:11.101Z,1.42
2023-03-06T21:20:38.718Z,1.45
2023-03-06T21:23:06.091Z,1.53
2023-03-06T21:25:32.584Z,1.44
2023-03-06T21:28:00.172Z,1.43
2023-03-06T21:30:27.764Z,1.41
2023-03-06T21:32:55.574Z,1.54
2023-03-06T21:35:22.263Z,1.51
2023-03-06T21:37:48.625Z,1.38
2023-03-06T21:40:15.044Z,1.31
2023-03-06T21:42:41.572Z,1.29
2023-03-06T21:45:08.793Z,1.26
2023-03-06T21:47:38.867Z,1.28
2023-03-06T21:50:07.252Z,1.22
2023-03-06T21:52:33.621Z,1.22
2023-03-06T21:55:00.127Z,1.16
2023-03-06T21:57:26.550Z,1.15
2023-03-06T21:59:52.894Z,1.16
2023-03-06T22:02:19.288Z,1.26
2023-03-06T22:04:50.098Z,1.18
2023-03-06T22:07:16.649Z,1.16
2023-03-06T22:09:43.082Z,1.23
2023-03-06T22:12:09.598Z,1.18
2023-03-06T22:14:36.018Z,1.13
2023-03-06T22:17:02.519Z,1.10
2023-03-06T22:19:28.944Z,1.04
2023-03-06T22:21:55.632Z,1.00
2023-03-06T22:24:21.980Z,0.98
2023-03-06T22:26:48.421Z,0.98
2023-03-06T22:29:14.786Z,1.02
2023-03-06T22:31:41.165Z,1.00
2023-03-06T22:34:07.695Z,1.00
2023-03-06T22:36:34.071Z,0.95
2023-03-06T22:39:02.319Z,0.99
2023-03-06T22:41:28.960Z,0.95
2023-03-06T22:44:00.029Z,1.01
2023-03-06T22:46:27.033Z,0.95
2023-03-06T22:48:55.882Z,0.99
2023-03-06T22:51:22.234Z,0.99
2023-03-06T22:53:49.279Z,1.01
2023-03-06T22:56:18.943Z,1.00
2023-03-06T22:58:46.349Z,0.95
2023-03-06T23:01:15.548Z,1.06
2023-03-06T23:03:46.939Z,1.08
2023-03-06T23:06:21.920Z,1.04
2023-03-06T23:08:50.974Z,1.06
2023-03-06T23:11:19.424Z,1.09
2023-03-06T23:13:46.557Z,1.10
2023-03-06T23:16:13.044Z,1.14
2023-03-06T23:18:39.936Z,1.12
2023-03-06T23:21:08.729Z,1.18
2023-03-06T23:23:36.299Z,1.20
2023-03-06T23:26:03.444Z,1.35
2023-03-06T23:28:30.504Z,1.21
2023-03-06T23:30:57.187Z,1.20
2023-03-06T23:33:23.815Z,1.22
2023-03-06T23:35:50.448Z,1.22
2023-03-06T23:38:16.840Z,1.25
2023-03-06T23:40:43.188Z,1.24
2023-03-06T23:43:09.857Z,1.26
2023-03-06T23:45:36.544Z,1.27
2023-03-06T23:48:04.936Z,1.32
2023-03-06T23:50:31.855Z,1.25
2023-03-06T23:52:58.271Z,1.30
2023-03-06T23:55:24.639Z,1.33
2023-03-06T23:57:50.995Z,1.35
